sensor_id;sensor_type;location;lat;lon;timestamp;pressure;altitude;pressure_sealevel;temperature;humidity
74834;BME280;63361;52.384;20.930;2023-03-23T00:01:21;99999.53;;;7.80;100.00
74834;BME280;63361;52.384;20.930;2023-03-23T00:03:49;99984.81;;;7.62;100.00
74834;BME280;63361;52.384;20.930;2023-03-23T00:06:16;100000.41;;;7.60;100.00
74834;BME280;63361;52.384;20.930;2023-03-23T00:08:43;99979.97;;;7.39;100.00
74834;BME280;63361;52.384;20.930;2023-03-23T00:11:14;99995.81;;;7.40;100.00
74834;BME280;63361;52.384;20.930;2023-03-23T00:13:41;99983.22;;;7.31;100.00
74834;BME280;63361;52.384;20.930;2023-03-23T00:16:08;99995.81;;;7.25;100.00
74834;BME280;63361;52.384;20.930;2023-03-23T00:18:44;99984.53;;;7.08;100.00
74834;BME280;63361;52.384;20.930;2023-03-23T00:21:09;99974.88;;;7.02;100.00
74834;BME280;63361;52.384;20.930;2023-03-23T00:23:35;99989.88;;;7.03;100.00
74834;BME280;63361;52.384;20.930;2023-03-23T00:26:00;99981.06;;;7.02;100.00
74834;BME280;63361;52.384;20.930;2023-03-23T00:28:27;99988.84;;;7.09;100.00
74834;BME280;63361;52.384;20.930;2023-03-23T00:31:00;99986.44;;;7.02;100.00
74834;BME280;63361;52.384;20.930;2023-03-23T00:33:28;99978.34;;;6.97;100.00
74834;BME280;63361;52.384;20.930;2023-03-23T00:35:54;99972.97;;;6.92;100.00
74834;BME280;63361;52.384;20.930;2023-03-23T00:38:21;99960.91;;;6.85;100.00
74834;BME280;63361;52.384;20.930;2023-03-23T00:40:47;99967.09;;;7.00;100.00
74834;BME280;63361;52.384;20.930;2023-03-23T00:43:19;99961.72;;;7.00;100.00
74834;BME280;63361;52.384;20.930;2023-03-23T00:45:45;99962.25;;;6.92;100.00
74834;BME280;63361;52.384;20.930;2023-03-23T00:48:20;99958.19;;;6.80;100.00
74834;BME280;63361;52.384;20.930;2023-03-23T00:50:46;99960.38;;;6.83;100.00
74834;BME280;63361;52.384;20.930;2023-03-23T00:53:12;99935.38;;;6.67;100.00
74834;BME280;63361;52.384;20.930;2023-03-23T00:55:37;99973.22;;;6.81;100.00
74834;BME280;63361;52.384;20.930;2023-03-23T00:58:02;99956.31;;;6.75;100.00
74834;BME280;63361;52.384;20.930;2023-03-23T01:00:28;99956.06;;;6.82;100.00
74834;BME280;63361;52.384;20.930;2023-03-23T01:02:54;99968.41;;;6.93;100.00
74834;BME280;63361;52.384;20.930;2023-03-23T01:05:19;99961.19;;;7.09;100.00
74834;BME280;63361;52.384;20.930;2023-03-23T01:07:45;99941.34;;;6.99;100.00
74834;BME280;63361;52.384;20.930;2023-03-23T01:10:12;99957.16;;;7.01;100.00
74834;BME280;63361;52.384;20.930;2023-03-23T01:12:40;99929.53;;;6.95;100.00
74834;BME280;63361;52.384;20.930;2023-03-23T01:15:06;99942.66;;;7.07;100.00
74834;BME280;63361;52.384;20.930;2023-03-23T01:17:31;99960.38;;;7.38;100.00
74834;BME280;63361;52.384;20.930;2023-03-23T01:19:57;99948.56;;;7.50;100.00
74834;BME280;63361;52.384;20.930;2023-03-23T01:22:22;99964.38;;;7.66;100.00
74834;BME280;63361;52.384;20.930;2023-03-23T01:24:48;99943.44;;;7.63;100.00
74834;BME280;63361;52.384;20.930;2023-03-23T01:27:13;99958.19;;;7.71;100.00
74834;BME280;63361;52.384;20.930;2023-03-23T01:29:38;99945.03;;;7.74;100.00
74834;BME280;63361;52.384;20.930;2023-03-23T01:32:04;99965.72;;;7.69;100.00
74834;BME280;63361;52.384;20.930;2023-03-23T01:34:30;99962.25;;;7.63;100.00
74834;BME280;63361;52.384;20.930;2023-03-23T01:36:56;99944.53;;;7.62;100.00
74834;BME280;63361;52.384;20.930;2023-03-23T01:39:21;99948.03;;;7.58;100.00
74834;BME280;63361;52.384;20.930;2023-03-23T01:41:46;99940.69;;;7.89;100.00
74834;BME280;63361;52.384;20.930;2023-03-23T01:46:41;99931.59;;;8.54;100.00
74834;BME280;63361;52.384;20.930;2023-03-23T01:49:28;99923.28;;;8.40;100.00
74834;BME280;63361;52.384;20.930;2023-03-23T01:52:01;99932.34;;;8.60;100.00
74834;BME280;63361;52.384;20.930;2023-03-23T01:54:28;99928.09;;;8.54;100.00
74834;BME280;63361;52.384;20.930;2023-03-23T01:57:02;99923.78;;;8.53;100.00
74834;BME280;63361;52.384;20.930;2023-03-23T01:59:29;99920.38;;;8.32;100.00
74834;BME280;63361;52.384;20.930;2023-03-23T02:01:57;99908.31;;;8.24;100.00
74834;BME280;63361;52.384;20.930;2023-03-23T02:04:23;99926.28;;;8.29;100.00
74834;BME280;63361;52.384;20.930;2023-03-23T02:06:51;99910.16;;;8.34;100.00
74834;BME280;63361;52.384;20.930;2023-03-23T02:09:17;99910.19;;;8.24;100.00
74834;BME280;63361;52.384;20.930;2023-03-23T02:11:44;99901.28;;;8.38;100.00
74834;BME280;63361;52.384;20.930;2023-03-23T02:14:10;99900.91;;;8.55;100.00
74834;BME280;63361;52.384;20.930;2023-03-23T02:22:44;99901.56;;;8.37;100.00
74834;BME280;63361;52.384;20.930;2023-03-23T02:24:55;99893.22;;;8.28;100.00
74834;BME280;63361;52.384;20.930;2023-03-23T02:33:43;99883.91;;;8.60;100.00
74834;BME280;63361;52.384;20.930;2023-03-23T02:38:44;99879.88;;;8.57;100.00
74834;BME280;63361;52.384;20.930;2023-03-23T02:41:17;99891.97;;;8.65;100.00
74834;BME280;63361;52.384;20.930;2023-03-23T02:43:45;99901.91;;;8.64;100.00
74834;BME280;63361;52.384;20.930;2023-03-23T02:46:12;99895.44;;;8.70;100.00
74834;BME280;63361;52.384;20.930;2023-03-23T02:48:40;99894.38;;;8.66;100.00
74834;BME280;63361;52.384;20.930;2023-03-23T02:51:08;99901.84;;;8.74;100.00
74834;BME280;63361;52.384;20.930;2023-03-23T02:53:37;99890.63;;;8.62;100.00
74834;BME280;63361;52.384;20.930;2023-03-23T02:56:06;99886.84;;;8.63;100.00
74834;BME280;63361;52.384;20.930;2023-03-23T02:58:33;99893.81;;;8.69;100.00
74834;BME280;63361;52.384;20.930;2023-03-23T03:00:58;99904.06;;;8.67;100.00
74834;BME280;63361;52.384;20.930;2023-03-23T03:03:28;99895.34;;;8.80;100.00
74834;BME280;63361;52.384;20.930;2023-03-23T03:06:27;99882.84;;;8.61;100.00
74834;BME280;63361;52.384;20.930;2023-03-23T03:11:30;99892.31;;;8.53;100.00
74834;BME280;63361;52.384;20.930;2023-03-23T03:14:04;99896.19;;;8.37;100.00
74834;BME280;63361;52.384;20.930;2023-03-23T03:16:36;99888.13;;;8.32;100.00
74834;BME280;63361;52.384;20.930;2023-03-23T03:19:08;99891.13;;;8.20;100.00
74834;BME280;63361;52.384;20.930;2023-03-23T03:21:39;99913.72;;;8.19;100.00
74834;BME280;63361;52.384;20.930;2023-03-23T03:24:07;99918.34;;;8.03;100.00
74834;BME280;63361;52.384;20.930;2023-03-23T03:26:42;99907.59;;;7.98;100.00
74834;BME280;63361;52.384;20.930;2023-03-23T03:29:19;99918.66;;;7.87;100.00
74834;BME280;63361;52.384;20.930;2023-03-23T03:31:47;99903.94;;;7.69;100.00
74834;BME280;63361;52.384;20.930;2023-03-23T03:34:14;99916.81;;;7.72;100.00
74834;BME280;63361;52.384;20.930;2023-03-23T03:36:43;99909.03;;;7.75;100.00
74834;BME280;63361;52.384;20.930;2023-03-23T03:39:12;99898.56;;;7.69;100.00
74834;BME280;63361;52.384;20.930;2023-03-23T03:41:40;99899.63;;;7.73;100.00
74834;BME280;63361;52.384;20.930;2023-03-23T03:44:06;99902.59;;;7.66;100.00
74834;BME280;63361;52.384;20.930;2023-03-23T03:46:35;99902.84;;;7.70;100.00
74834;BME280;63361;52.384;20.930;2023-03-23T03:49:02;99909.88;;;7.61;100.00
74834;BME280;63361;52.384;20.930;2023-03-23T03:51:30;99898.34;;;7.60;100.00
74834;BME280;63361;52.384;20.930;2023-03-23T03:53:56;99908.56;;;7.43;100.00
74834;BME280;63361;52.384;20.930;2023-03-23T03:56:22;99891.66;;;7.48;100.00
74834;BME280;63361;52.384;20.930;2023-03-23T03:58:49;99887.13;;;7.33;100.00
74834;BME280;63361;52.384;20.930;2023-03-23T04:01:16;99894.88;;;7.34;100.00
74834;BME280;63361;52.384;20.930;2023-03-23T04:03:42;99895.97;;;7.28;100.00
74834;BME280;63361;52.384;20.930;2023-03-23T04:06:08;99903.22;;;7.33;100.00
74834;BME280;63361;52.384;20.930;2023-03-23T04:08:35;99888.72;;;7.24;100.00
74834;BME280;63361;52.384;20.930;2023-03-23T04:11:01;99875.59;;;7.07;100.00
74834;BME280;63361;52.384;20.930;2023-03-23T04:13:26;99885.50;;;7.12;100.00
74834;BME280;63361;52.384;20.930;2023-03-23T04:15:52;99909.91;;;7.20;100.00
74834;BME280;63361;52.384;20.930;2023-03-23T04:18:18;99899.47;;;7.29;100.00
74834;BME280;63361;52.384;20.930;2023-03-23T04:20:46;99903.47;;;7.26;100.00
74834;BME280;63361;52.384;20.930;2023-03-23T04:23:14;99889.25;;;7.21;100.00
74834;BME280;63361;52.384;20.930;2023-03-23T04:25:39;99896.50;;;7.30;100.00
74834;BME280;63361;52.384;20.930;2023-03-23T04:28:07;99890.09;;;7.16;100.00
74834;BME280;63361;52.384;20.930;2023-03-23T04:30:35;99893.53;;;7.22;100.00
74834;BME280;63361;52.384;20.930;2023-03-23T04:33:00;99896.78;;;7.24;100.00
74834;BME280;63361;52.384;20.930;2023-03-23T04:35:27;99891.13;;;7.25;100.00
74834;BME280;63361;52.384;20.930;2023-03-23T04:37:54;99884.16;;;7.29;100.00
74834;BME280;63361;52.384;20.930;2023-03-23T04:40:20;99865.31;;;7.55;100.00
74834;BME280;63361;52.384;20.930;2023-03-23T04:42:46;99889.16;;;7.66;100.00
74834;BME280;63361;52.384;20.930;2023-03-23T04:45:17;99897.22;;;7.66;100.00
74834;BME280;63361;52.384;20.930;2023-03-23T04:47:46;99884.88;;;7.65;100.00
74834;BME280;63361;52.384;20.930;2023-03-23T04:50:21;99884.88;;;7.65;100.00
74834;BME280;63361;52.384;20.930;2023-03-23T04:52:49;99885.66;;;7.66;100.00
74834;BME280;63361;52.384;20.930;2023-03-23T04:55:17;99894.75;;;7.80;100.00
74834;BME280;63361;52.384;20.930;2023-03-23T04:57:43;99872.72;;;7.88;100.00
74834;BME280;63361;52.384;20.930;2023-03-23T05:00:10;99882.06;;;8.06;100.00
74834;BME280;63361;52.384;20.930;2023-03-23T05:02:39;99867.13;;;8.29;100.00
74834;BME280;63361;52.384;20.930;2023-03-23T05:05:10;99866.53;;;8.42;100.00
74834;BME280;63361;52.384;20.930;2023-03-23T05:07:38;99876.38;;;8.62;100.00
74834;BME280;63361;52.384;20.930;2023-03-23T05:10:04;99877.88;;;8.78;100.00
74834;BME280;63361;52.384;20.930;2023-03-23T05:12:30;99878.13;;;8.81;100.00
74834;BME280;63361;52.384;20.930;2023-03-23T05:14:55;99878.56;;;8.94;100.00
74834;BME280;63361;52.384;20.930;2023-03-23T05:17:21;99878.75;;;9.02;100.00
74834;BME280;63361;52.384;20.930;2023-03-23T05:19:49;99852.75;;;8.88;100.00
74834;BME280;63361;52.384;20.930;2023-03-23T05:22:15;99878.06;;;9.21;100.00
74834;BME280;63361;52.384;20.930;2023-03-23T05:24:40;99884.34;;;9.40;100.00
74834;BME280;63361;52.384;20.930;2023-03-23T05:27:08;99878.66;;;9.41;100.00
74834;BME280;63361;52.384;20.930;2023-03-23T05:29:34;99877.06;;;9.40;100.00
74834;BME280;63361;52.384;20.930;2023-03-23T05:32:02;99885.25;;;9.54;100.00
74834;BME280;63361;52.384;20.930;2023-03-23T05:34:28;99874.66;;;9.63;100.00
74834;BME280;63361;52.384;20.930;2023-03-23T05:36:57;99879.81;;;9.83;100.00
74834;BME280;63361;52.384;20.930;2023-03-23T05:39:23;99892.16;;;9.89;100.00
74834;BME280;63361;52.384;20.930;2023-03-23T05:41:48;99893.13;;;9.98;100.00
74834;BME280;63361;52.384;20.930;2023-03-23T05:44:13;99895.06;;;10.16;100.00
74834;BME280;63361;52.384;20.930;2023-03-23T05:46:39;99896.94;;;10.21;100.00
74834;BME280;63361;52.384;20.930;2023-03-23T05:49:05;99889.72;;;10.35;100.00
74834;BME280;63361;52.384;20.930;2023-03-23T05:51:30;99899.47;;;10.31;100.00
74834;BME280;63361;52.384;20.930;2023-03-23T05:53:56;99891.47;;;10.45;100.00
74834;BME280;63361;52.384;20.930;2023-03-23T05:56:22;99886.59;;;10.47;99.99
74834;BME280;63361;52.384;20.930;2023-03-23T05:58:48;99892.91;;;10.75;99.02
74834;BME280;63361;52.384;20.930;2023-03-23T06:01:13;99888.72;;;11.01;96.72
74834;BME280;63361;52.384;20.930;2023-03-23T06:03:39;99891.97;;;11.17;95.81
74834;BME280;63361;52.384;20.930;2023-03-23T06:06:05;99889.66;;;11.10;95.73
74834;BME280;63361;52.384;20.930;2023-03-23T06:08:30;99894.22;;;11.28;94.79
74834;BME280;63361;52.384;20.930;2023-03-23T06:10:56;99902.78;;;11.31;94.53
74834;BME280;63361;52.384;20.930;2023-03-23T06:13:22;99916.69;;;11.56;92.85
74834;BME280;63361;52.384;20.930;2023-03-23T06:15:48;99907.56;;;11.66;91.89
74834;BME280;63361;52.384;20.930;2023-03-23T06:18:13;99903.31;;;11.79;91.27
74834;BME280;63361;52.384;20.930;2023-03-23T06:20:39;99900.50;;;11.97;90.81
74834;BME280;63361;52.384;20.930;2023-03-23T06:23:05;99892.56;;;12.15;88.70
74834;BME280;63361;52.384;20.930;2023-03-23T06:25:31;99886.66;;;12.13;88.64
74834;BME280;63361;52.384;20.930;2023-03-23T06:27:57;99888.53;;;12.40;88.10
74834;BME280;63361;52.384;20.930;2023-03-23T06:30:22;99880.84;;;12.55;86.49
74834;BME280;63361;52.384;20.930;2023-03-23T06:32:48;99895.38;;;12.37;87.37
74834;BME280;63361;52.384;20.930;2023-03-23T06:35:14;99880.06;;;12.55;85.71
74834;BME280;63361;52.384;20.930;2023-03-23T06:37:40;99891.91;;;12.81;85.26
74834;BME280;63361;52.384;20.930;2023-03-23T06:40:06;99893.78;;;12.94;84.04
74834;BME280;63361;52.384;20.930;2023-03-23T06:42:31;99885.84;;;12.98;83.98
74834;BME280;63361;52.384;20.930;2023-03-23T06:44:57;99890.59;;;12.56;85.00
74834;BME280;63361;52.384;20.930;2023-03-23T06:47:24;99887.72;;;12.75;84.72
74834;BME280;63361;52.384;20.930;2023-03-23T06:49:49;99886.28;;;13.00;82.75
74834;BME280;63361;52.384;20.930;2023-03-23T06:52:15;99903.94;;;13.11;82.90
74834;BME280;63361;52.384;20.930;2023-03-23T06:54:41;99884.28;;;13.98;79.60
74834;BME280;63361;52.384;20.930;2023-03-23T06:57:07;99888.56;;;14.91;75.62
74834;BME280;63361;52.384;20.930;2023-03-23T06:59:32;99908.91;;;15.48;74.23
74834;BME280;63361;52.384;20.930;2023-03-23T07:01:58;99899.91;;;14.93;74.23
74834;BME280;63361;52.384;20.930;2023-03-23T07:04:23;99902.75;;;15.22;72.92
74834;BME280;63361;52.384;20.930;2023-03-23T07:06:49;99904.41;;;15.61;72.48
74834;BME280;63361;52.384;20.930;2023-03-23T07:09:14;99894.63;;;16.57;69.58
74834;BME280;63361;52.384;20.930;2023-03-23T07:11:40;99888.69;;;17.75;63.96
74834;BME280;63361;52.384;20.930;2023-03-23T07:14:06;99898.97;;;18.02;62.22
74834;BME280;63361;52.384;20.930;2023-03-23T07:16:32;99910.00;;;17.03;65.47
74834;BME280;63361;52.384;20.930;2023-03-23T07:18:58;99908.50;;;17.72;62.35
74834;BME280;63361;52.384;20.930;2023-03-23T07:21:23;99911.41;;;18.64;59.82
74834;BME280;63361;52.384;20.930;2023-03-23T07:23:48;99905.19;;;20.10;54.87
74834;BME280;63361;52.384;20.930;2023-03-23T07:26:14;99911.13;;;19.96;52.56
74834;BME280;63361;52.384;20.930;2023-03-23T07:28:39;99901.63;;;23.22;42.37
74834;BME280;63361;52.384;20.930;2023-03-23T07:31:05;99898.84;;;23.56;40.73
74834;BME280;63361;52.384;20.930;2023-03-23T07:33:32;99911.84;;;23.18;41.19
74834;BME280;63361;52.384;20.930;2023-03-23T07:35:59;99903.69;;;24.13;39.42
74834;BME280;63361;52.384;20.930;2023-03-23T07:38:25;99900.38;;;24.48;38.19
74834;BME280;63361;52.384;20.930;2023-03-23T07:40:52;99892.44;;;23.07;39.75
74834;BME280;63361;52.384;20.930;2023-03-23T07:43:18;99897.97;;;20.72;44.65
74834;BME280;63361;52.384;20.930;2023-03-23T07:45:44;99900.41;;;19.91;46.78
74834;BME280;63361;52.384;20.930;2023-03-23T07:48:10;99893.47;;;20.45;46.71
74834;BME280;63361;52.384;20.930;2023-03-23T07:50:35;99890.78;;;21.45;43.61
74834;BME280;63361;52.384;20.930;2023-03-23T07:53:02;99887.97;;;21.87;42.45
74834;BME280;63361;52.384;20.930;2023-03-23T07:55:27;99887.91;;;22.06;41.98
74834;BME280;63361;52.384;20.930;2023-03-23T07:57:54;99898.44;;;22.83;40.49
74834;BME280;63361;52.384;20.930;2023-03-23T08:00:20;99888.69;;;24.76;37.38
74834;BME280;63361;52.384;20.930;2023-03-23T08:02:50;99856.53;;;27.24;32.07
74834;BME280;63361;52.384;20.930;2023-03-23T08:05:17;99882.03;;;24.84;34.92
74834;BME280;63361;52.384;20.930;2023-03-23T08:07:43;99869.16;;;21.89;41.31
74834;BME280;63361;52.384;20.930;2023-03-23T08:10:11;99874.34;;;20.67;42.59
74834;BME280;63361;52.384;20.930;2023-03-23T08:12:42;99868.75;;;19.47;46.04
74834;BME280;63361;52.384;20.930;2023-03-23T08:15:09;99869.97;;;19.18;47.30
74834;BME280;63361;52.384;20.930;2023-03-23T08:17:38;99869.13;;;18.74;48.95
74834;BME280;63361;52.384;20.930;2023-03-23T08:20:05;99864.69;;;18.97;48.51
74834;BME280;63361;52.384;20.930;2023-03-23T08:22:39;99846.94;;;19.35;47.39
74834;BME280;63361;52.384;20.930;2023-03-23T08:25:06;99851.16;;;19.16;47.52
74834;BME280;63361;52.384;20.930;2023-03-23T08:27:32;99832.59;;;19.10;47.70
74834;BME280;63361;52.384;20.930;2023-03-23T08:29:57;99839.31;;;19.12;48.05
74834;BME280;63361;52.384;20.930;2023-03-23T08:32:23;99832.34;;;19.15;49.05
74834;BME280;63361;52.384;20.930;2023-03-23T08:34:49;99841.81;;;19.17;47.12
74834;BME280;63361;52.384;20.930;2023-03-23T08:37:15;99833.97;;;19.47;46.70
74834;BME280;63361;52.384;20.930;2023-03-23T08:39:40;99836.75;;;19.04;47.89
74834;BME280;63361;52.384;20.930;2023-03-23T08:42:05;99835.28;;;20.00;45.51
74834;BME280;63361;52.384;20.930;2023-03-23T08:44:31;99794.47;;;18.17;48.12
74834;BME280;63361;52.384;20.930;2023-03-23T08:46:56;99840.81;;;17.77;50.47
74834;BME280;63361;52.384;20.930;2023-03-23T08:49:23;99854.31;;;17.49;51.29
74834;BME280;63361;52.384;20.930;2023-03-23T08:51:48;99836.78;;;17.26;52.22
74834;BME280;63361;52.384;20.930;2023-03-23T08:54:14;99829.16;;;17.32;51.87
74834;BME280;63361;52.384;20.930;2023-03-23T08:56:39;99840.16;;;17.11;52.50
74834;BME280;63361;52.384;20.930;2023-03-23T08:59:04;99861.16;;;16.77;53.55
74834;BME280;63361;52.384;20.930;2023-03-23T09:01:30;99861.84;;;16.24;54.82
74834;BME280;63361;52.384;20.930;2023-03-23T09:03:55;99861.16;;;16.06;55.28
74834;BME280;63361;52.384;20.930;2023-03-23T09:06:21;99853.84;;;15.98;55.71
74834;BME280;63361;52.384;20.930;2023-03-23T09:08:46;99852.13;;;16.14;55.40
74834;BME280;63361;52.384;20.930;2023-03-23T09:11:12;99843.97;;;16.56;54.48
74834;BME280;63361;52.384;20.930;2023-03-23T09:13:38;99827.47;;;16.94;53.49
74834;BME280;63361;52.384;20.930;2023-03-23T09:16:05;99851.97;;;17.27;52.70
74834;BME280;63361;52.384;20.930;2023-03-23T09:18:31;99853.03;;;17.47;52.25
74834;BME280;63361;52.384;20.930;2023-03-23T09:21:00;99851.97;;;17.84;50.72
74834;BME280;63361;52.384;20.930;2023-03-23T09:23:26;99856.84;;;17.79;51.06
74834;BME280;63361;52.384;20.930;2023-03-23T09:25:52;99855.09;;;17.62;52.38
74834;BME280;63361;52.384;20.930;2023-03-23T09:28:18;99854.25;;;17.70;51.35
74834;BME280;63361;52.384;20.930;2023-03-23T09:30:44;99837.13;;;17.49;51.53
74834;BME280;63361;52.384;20.930;2023-03-23T09:33:10;99829.50;;;17.42;51.43
74834;BME280;63361;52.384;20.930;2023-03-23T09:35:36;99833.53;;;17.69;51.09
74834;BME280;63361;52.384;20.930;2023-03-23T09:38:04;99835.06;;;17.46;52.35
74834;BME280;63361;52.384;20.930;2023-03-23T09:40:40;99837.81;;;17.46;51.93
74834;BME280;63361;52.384;20.930;2023-03-23T09:43:36;99816.78;;;17.58;51.54
74834;BME280;63361;52.384;20.930;2023-03-23T09:56:36;99793.72;;;18.73;47.31
74834;BME280;63361;52.384;20.930;2023-03-23T10:02:38;99811.13;;;21.67;41.47
74834;BME280;63361;52.384;20.930;2023-03-23T10:05:32;99810.00;;;22.85;38.60
74834;BME280;63361;52.384;20.930;2023-03-23T10:08:00;99804.38;;;23.55;37.30
74834;BME280;63361;52.384;20.930;2023-03-23T10:16:05;99797.63;;;22.38;38.42
74834;BME280;63361;52.384;20.930;2023-03-23T10:18:40;99790.25;;;22.79;38.14
74834;BME280;63361;52.384;20.930;2023-03-23T10:21:11;99776.09;;;21.87;38.00
74834;BME280;63361;52.384;20.930;2023-03-23T10:23:51;99775.84;;;22.89;36.09
74834;BME280;63361;52.384;20.930;2023-03-23T10:28:51;99764.28;;;20.69;39.86
74834;BME280;63361;52.384;20.930;2023-03-23T10:31:29;99751.75;;;22.45;37.60
74834;BME280;63361;52.384;20.930;2023-03-23T10:34:01;99765.53;;;23.23;35.80
74834;BME280;63361;52.384;20.930;2023-03-23T10:36:37;99755.31;;;24.44;33.96
74834;BME280;63361;52.384;20.930;2023-03-23T10:39:13;99767.59;;;23.33;34.43
74834;BME280;63361;52.384;20.930;2023-03-23T10:41:41;99749.66;;;22.05;36.39
74834;BME280;63361;52.384;20.930;2023-03-23T10:44:15;99756.84;;;21.87;37.08
74834;BME280;63361;52.384;20.930;2023-03-23T10:49:23;99752.88;;;21.85;36.38
74834;BME280;63361;52.384;20.930;2023-03-23T10:55:07;99758.84;;;22.17;36.38
74834;BME280;63361;52.384;20.930;2023-03-23T10:57:36;99756.13;;;21.37;37.22
74834;BME280;63361;52.384;20.930;2023-03-23T11:02:47;99750.19;;;21.88;37.50
74834;BME280;63361;52.384;20.930;2023-03-23T11:05:24;99764.47;;;22.91;35.95
74834;BME280;63361;52.384;20.930;2023-03-23T11:07:56;99753.50;;;23.45;35.02
74834;BME280;63361;52.384;20.930;2023-03-23T11:10:26;99748.69;;;23.87;34.43
74834;BME280;63361;52.384;20.930;2023-03-23T11:12:56;99733.75;;;25.42;30.39
74834;BME280;63361;52.384;20.930;2023-03-23T11:15:32;99731.69;;;26.03;29.19
74834;BME280;63361;52.384;20.930;2023-03-23T11:18:08;99732.91;;;25.91;27.94
74834;BME280;63361;52.384;20.930;2023-03-23T11:20:40;99731.72;;;24.71;30.65
74834;BME280;63361;52.384;20.930;2023-03-23T11:23:27;99725.06;;;25.68;29.76
74834;BME280;63361;52.384;20.930;2023-03-23T11:28:19;99710.66;;;22.63;33.50
74834;BME280;63361;52.384;20.930;2023-03-23T11:30:45;99724.47;;;22.00;34.81
74834;BME280;63361;52.384;20.930;2023-03-23T11:33:11;99712.59;;;21.39;35.91
74834;BME280;63361;52.384;20.930;2023-03-23T11:35:44;99706.88;;;21.25;36.76
74834;BME280;63361;52.384;20.930;2023-03-23T11:38:17;99702.56;;;22.40;34.82
74834;BME280;63361;52.384;20.930;2023-03-23T11:40:48;99720.53;;;23.05;33.25
74834;BME280;63361;52.384;20.930;2023-03-23T11:43:18;99699.91;;;22.85;33.69
74834;BME280;63361;52.384;20.930;2023-03-23T11:46:22;99697.22;;;24.15;32.56
74834;BME280;63361;52.384;20.930;2023-03-23T11:48:57;99680.84;;;24.69;31.81
74834;BME280;63361;52.384;20.930;2023-03-23T11:51:30;99689.13;;;24.83;31.56
74834;BME280;63361;52.384;20.930;2023-03-23T11:54:16;99692.66;;;24.76;31.88
74834;BME280;63361;52.384;20.930;2023-03-23T11:56:45;99679.09;;;24.14;32.33
74834;BME280;63361;52.384;20.930;2023-03-23T11:59:17;99677.69;;;24.81;31.85
74834;BME280;63361;52.384;20.930;2023-03-23T12:08:10;99676.66;;;21.78;35.42
74834;BME280;63361;52.384;20.930;2023-03-23T12:11:07;99679.69;;;21.43;36.86
74834;BME280;63361;52.384;20.930;2023-03-23T12:13:39;99677.63;;;21.63;36.39
74834;BME280;63361;52.384;20.930;2023-03-23T12:16:34;99668.75;;;22.03;36.75
74834;BME280;63361;52.384;20.930;2023-03-23T12:19:25;99638.66;;;22.14;35.69
74834;BME280;63361;52.384;20.930;2023-03-23T12:33:03;99641.41;;;24.54;32.18
74834;BME280;63361;52.384;20.930;2023-03-23T12:38:59;99648.56;;;23.65;33.23
74834;BME280;63361;52.384;20.930;2023-03-23T12:44:06;99634.41;;;23.70;33.55
74834;BME280;63361;52.384;20.930;2023-03-23T12:55:02;99642.06;;;20.49;40.07
74834;BME280;63361;52.384;20.930;2023-03-23T13:07:55;99633.72;;;20.64;39.13
74834;BME280;63361;52.384;20.930;2023-03-23T13:10:28;99622.56;;;20.54;39.77
74834;BME280;63361;52.384;20.930;2023-03-23T13:12:55;99640.47;;;20.48;40.25
74834;BME280;63361;52.384;20.930;2023-03-23T13:15:53;99636.84;;;20.40;40.15
74834;BME280;63361;52.384;20.930;2023-03-23T13:23:42;99642.00;;;19.84;41.05
74834;BME280;63361;52.384;20.930;2023-03-23T13:26:13;99639.81;;;19.74;40.83
74834;BME280;63361;52.384;20.930;2023-03-23T13:31:27;99643.72;;;19.38;41.01
74834;BME280;63361;52.384;20.930;2023-03-23T13:34:00;99636.84;;;19.12;41.94
74834;BME280;63361;52.384;20.930;2023-03-23T13:38:55;99645.16;;;19.00;42.56
74834;BME280;63361;52.384;20.930;2023-03-23T13:41:22;99628.41;;;19.02;42.37
74834;BME280;63361;52.384;20.930;2023-03-23T13:43:48;99653.81;;;19.02;42.83
74834;BME280;63361;52.384;20.930;2023-03-23T13:46:26;99639.31;;;19.17;42.10
74834;BME280;63361;52.384;20.930;2023-03-23T13:56:59;99654.00;;;18.34;44.52
74834;BME280;63361;52.384;20.930;2023-03-23T14:01:53;99673.16;;;18.06;45.74
74834;BME280;63361;52.384;20.930;2023-03-23T14:04:19;99677.63;;;17.99;46.84
74834;BME280;63361;52.384;20.930;2023-03-23T14:06:48;99660.63;;;17.77;46.94
74834;BME280;63361;52.384;20.930;2023-03-23T14:12:02;99679.84;;;17.81;47.49
74834;BME280;63361;52.384;20.930;2023-03-23T14:14:40;99693.97;;;17.71;47.09
74834;BME280;63361;52.384;20.930;2023-03-23T14:17:15;99689.78;;;17.49;47.46
74834;BME280;63361;52.384;20.930;2023-03-23T14:19:42;99694.09;;;17.50;47.71
74834;BME280;63361;52.384;20.930;2023-03-23T14:22:23;99696.59;;;17.43;48.26
74834;BME280;63361;52.384;20.930;2023-03-23T14:24:49;99702.41;;;17.41;49.11
74834;BME280;63361;52.384;20.930;2023-03-23T14:27:17;99701.50;;;17.25;49.63
74834;BME280;63361;52.384;20.930;2023-03-23T14:29:44;99688.66;;;17.13;49.63
74834;BME280;63361;52.384;20.930;2023-03-23T14:32:15;99708.53;;;17.14;51.11
74834;BME280;63361;52.384;20.930;2023-03-23T14:34:41;99709.66;;;17.01;51.62
74834;BME280;63361;52.384;20.930;2023-03-23T14:37:13;99705.94;;;17.05;51.01
74834;BME280;63361;52.384;20.930;2023-03-23T14:39:38;99698.97;;;16.83;51.60
74834;BME280;63361;52.384;20.930;2023-03-23T14:42:06;99714.97;;;16.85;52.00
74834;BME280;63361;52.384;20.930;2023-03-23T14:44:37;99707.59;;;16.73;51.17
74834;BME280;63361;52.384;20.930;2023-03-23T14:47:06;99709.94;;;16.63;51.67
74834;BME280;63361;52.384;20.930;2023-03-23T14:49:41;99692.84;;;16.53;51.52
74834;BME280;63361;52.384;20.930;2023-03-23T14:52:12;99723.56;;;16.63;51.86
74834;BME280;63361;52.384;20.930;2023-03-23T14:54:39;99733.06;;;16.57;51.93
74834;BME280;63361;52.384;20.930;2023-03-23T14:59:41;99716.53;;;16.41;52.22